Terminal Aerodrome Forecast
Issued by NWS Cleveland, OH

Home | Current Version | Previous Version | Graphics & Text | Print | Product List | Glossary On
Versions: 1 2 3 4 5 6 7 8 9 10 11 12 13 14 15 16 17 18 19
151
FTUS41 KCLE 231434 AAA
TAFTOL
TAF AMD
KTOL 231434Z 2315/2412 VRB03KT P6SM SCT009 BKN045
     FM231700 29005KT P6SM VCTS SCT030CB BKN070
     FM232100 27008KT P6SM SCT030 BKN120
      TEMPO 2321/2323 5SM -TSRA BKN030CB=

USA.gov is the U.S. government's official web portal to all federal, state and local government web resources and services.